createdAt,value
2018-03-28T00:08:14.569Z,19.83
2018-03-28T00:18:23.256Z,17.80
2018-03-28T00:28:38.558Z,17.10
2018-03-28T00:38:47.662Z,15.40
2018-03-28T00:48:58.936Z,15.87
2018-03-28T00:59:11.189Z,14.87
2018-03-28T01:09:21.534Z,14.27
2018-03-28T01:19:33.955Z,14.13
2018-03-28T01:29:51.791Z,13.53
2018-03-28T01:40:07.334Z,13.90
2018-03-28T01:50:18.896Z,13.10
2018-03-28T02:00:28.988Z,13.07
2018-03-28T02:10:42.539Z,12.37
2018-03-28T02:21:00.872Z,12.73
2018-03-28T02:31:10.437Z,12.17
2018-03-28T02:41:20.193Z,12.10
2018-03-28T02:51:30.435Z,12.07
2018-03-28T03:01:48.854Z,11.60
2018-03-28T03:12:00.160Z,11.40
2018-03-28T03:22:13.997Z,12.20
2018-03-28T03:32:26.098Z,11.10
2018-03-28T03:42:38.889Z,11.50
2018-03-28T03:52:53.073Z,11.17
2018-03-28T04:03:07.814Z,11.17
2018-03-28T04:13:19.751Z,10.77
2018-03-28T04:23:34.527Z,11.00
2018-03-28T04:33:47.681Z,10.83
2018-03-28T04:43:57.567Z,10.37
2018-03-28T04:54:11.974Z,10.20
2018-03-28T05:04:31.656Z,11.00
2018-03-28T05:14:43.682Z,10.83
2018-03-28T05:24:56.536Z,10.83
2018-03-28T05:35:17.413Z,10.40
2018-03-28T05:45:26.814Z,10.43
2018-03-28T05:55:42.074Z,10.73
2018-03-28T06:05:56.869Z,10.50
2018-03-28T06:16:10.780Z,10.43
2018-03-28T06:26:21.591Z,10.40
2018-03-28T06:36:33.557Z,9.60
2018-03-28T06:46:50.176Z,10.30
2018-03-28T06:56:58.658Z,10.80
2018-03-28T07:07:14.877Z,10.70
2018-03-28T07:17:32.327Z,10.07
2018-03-28T07:27:44.345Z,10.87
2018-03-28T07:38:00.355Z,9.97
2018-03-28T07:48:14.700Z,10.17
2018-03-28T07:58:23.054Z,9.97
2018-03-28T08:08:34.285Z,10.47
2018-03-28T08:18:50.181Z,10.40
2018-03-28T08:29:02.780Z,10.67
2018-03-28T08:39:25.100Z,10.70
2018-03-28T08:49:42.998Z,10.90
2018-03-28T08:59:53.796Z,10.63
2018-03-28T09:10:04.886Z,10.67
2018-03-28T09:20:15.421Z,11.00
2018-03-28T09:30:31.399Z,10.60
2018-03-28T09:40:48.398Z,11.20
2018-03-28T09:50:56.903Z,10.47
2018-03-28T10:01:11.309Z,11.07
2018-03-28T10:11:21.733Z,11.33
2018-03-28T10:21:33.859Z,12.90
2018-03-28T10:31:46.738Z,14.60
2018-03-28T10:41:59.419Z,15.23
2018-03-28T10:52:16.811Z,13.30
2018-03-28T11:02:26.305Z,12.00
2018-03-28T11:12:34.729Z,19.37
2018-03-28T11:22:43.965Z,25.07
2018-03-28T11:32:52.665Z,28.83
2018-03-28T11:43:03.320Z,28.13
2018-03-28T11:53:13.816Z,25.50
2018-03-28T12:03:31.058Z,27.27
2018-03-28T12:13:51.119Z,24.43
2018-03-28T12:24:07.680Z,22.90
2018-03-28T12:34:18.398Z,20.33
2018-03-28T12:44:30.373Z,18.40
2018-03-28T12:54:43.554Z,17.00
2018-03-28T13:05:04.273Z,17.00
2018-03-28T13:15:16.310Z,15.77
2018-03-28T13:25:33.130Z,15.63
2018-03-28T13:35:46.718Z,16.13
2018-03-28T13:46:00.894Z,17.03
2018-03-28T13:56:14.584Z,19.87
2018-03-28T14:06:25.306Z,18.17
2018-03-28T14:16:41.166Z,17.50
2018-03-28T14:26:54.134Z,17.30
2018-03-28T14:37:10.105Z,20.00
2018-03-28T14:47:23.275Z,21.57
2018-03-28T14:57:38.367Z,20.90
2018-03-28T15:07:54.262Z,19.13
2018-03-28T15:18:06.315Z,23.13
2018-03-28T15:28:17.445Z,18.30
2018-03-28T15:38:33.397Z,19.20
2018-03-28T15:48:44.243Z,18.73
2018-03-28T15:59:05.020Z,19.37
2018-03-28T16:09:14.911Z,22.57
2018-03-28T16:19:27.014Z,22.57
2018-03-28T16:29:37.990Z,24.70
2018-03-28T16:39:51.163Z,22.67
2018-03-28T16:49:59.494Z,22.33
2018-03-28T17:00:11.742Z,22.63
2018-03-28T17:10:21.481Z,19.40
2018-03-28T17:20:32.709Z,19.53
2018-03-28T17:30:41.002Z,18.47
2018-03-28T17:40:50.356Z,18.13
2018-03-28T17:51:01.394Z,17.33
2018-03-28T18:01:20.551Z,16.80
2018-03-28T18:11:33.088Z,17.40
2018-03-28T18:21:43.893Z,16.63
2018-03-28T18:31:53.322Z,16.40
2018-03-28T18:42:03.657Z,16.70
2018-03-28T18:52:16.035Z,15.63
2018-03-28T19:02:25.153Z,15.43
2018-03-28T19:12:36.703Z,16.10
2018-03-28T19:22:49.078Z,16.17
2018-03-28T19:32:57.269Z,15.03
2018-03-28T19:43:12.536Z,18.83
2018-03-28T19:53:28.859Z,17.47
2018-03-28T20:03:37.790Z,17.00
2018-03-28T20:13:49.624Z,18.00
2018-03-28T20:23:57.710Z,18.07
2018-03-28T20:34:10.827Z,17.53
2018-03-28T20:44:29.525Z,17.80
2018-03-28T20:54:38.528Z,19.70
2018-03-28T21:04:54.660Z,20.30
2018-03-28T21:15:09.071Z,18.80
2018-03-28T21:25:19.438Z,21.50
2018-03-28T21:35:31.018Z,22.43
2018-03-28T21:45:48.870Z,21.80
2018-03-28T21:55:59.053Z,20.50
2018-03-28T22:06:08.782Z,22.97
2018-03-28T22:16:24.235Z,23.30
2018-03-28T22:26:36.546Z,23.37
2018-03-28T22:36:46.804Z,23.37
2018-03-28T22:47:03.871Z,21.17
2018-03-28T22:57:17.841Z,21.57
2018-03-28T23:07:32.596Z,20.27
2018-03-28T23:17:53.242Z,19.53
2018-03-28T23:38:52.203Z,19.03
2018-03-28T23:49:16.423Z,19.10
2018-03-28T23:59:32.169Z,18.33
